createdAt,value
2018-03-03T00:01:21.834Z,87.47
2018-03-03T00:03:49.926Z,85.43
2018-03-03T00:06:17.971Z,87.17
2018-03-03T00:08:46.038Z,80.80
2018-03-03T00:11:14.182Z,80.10
2018-03-03T00:13:42.995Z,84.93
2018-03-03T00:16:11.069Z,86.57
2018-03-03T00:18:39.136Z,85.77
2018-03-03T00:21:07.200Z,87.53
2018-03-03T00:23:36.136Z,84.83
2018-03-03T00:26:04.184Z,85.20
2018-03-03T00:28:33.056Z,83.57
2018-03-03T00:31:01.185Z,83.07
2018-03-03T00:33:29.339Z,76.87
2018-03-03T00:35:57.418Z,86.73
2018-03-03T00:38:25.483Z,85.00
2018-03-03T00:40:53.539Z,84.03
2018-03-03T00:43:21.607Z,81.53
2018-03-03T00:45:50.418Z,85.97
2018-03-03T00:48:18.565Z,82.20
2018-03-03T00:50:46.627Z,82.80
2018-03-03T00:53:14.723Z,80.57
2018-03-03T00:55:42.789Z,85.33
2018-03-03T00:58:10.868Z,87.80
2018-03-03T01:00:38.927Z,87.10
2018-03-03T01:03:06.999Z,79.97
2018-03-03T01:05:35.068Z,79.73
2018-03-03T01:08:03.915Z,77.57
2018-03-03T01:10:32.012Z,75.83
2018-03-03T01:13:00.088Z,77.67
2018-03-03T01:15:28.249Z,74.07
2018-03-03T01:17:56.352Z,74.77
2018-03-03T01:20:25.475Z,75.87
2018-03-03T01:22:53.546Z,68.63
2018-03-03T01:25:21.617Z,73.43
2018-03-03T01:27:50.409Z,65.43
2018-03-03T01:30:18.519Z,62.60
2018-03-03T01:32:46.583Z,65.00
2018-03-03T01:35:14.885Z,66.30
2018-03-03T01:37:42.968Z,65.03
2018-03-03T01:40:11.042Z,59.27
2018-03-03T01:42:39.171Z,50.93
2018-03-03T01:45:07.207Z,42.70
2018-03-03T01:47:35.306Z,39.77
2018-03-03T01:50:03.473Z,40.83
2018-03-03T01:52:31.541Z,42.53
2018-03-03T01:54:59.622Z,37.33
2018-03-03T01:57:29.564Z,36.27
2018-03-03T01:59:57.633Z,36.33
2018-03-03T02:02:25.693Z,34.47
2018-03-03T02:04:54.536Z,34.17
2018-03-03T02:07:22.601Z,32.47
2018-03-03T02:09:50.679Z,33.23
2018-03-03T02:12:18.827Z,25.43
2018-03-03T02:14:46.889Z,24.80
2018-03-03T02:17:14.988Z,23.60
2018-03-03T02:19:43.235Z,23.20
2018-03-03T02:22:11.312Z,19.10
2018-03-03T02:24:39.438Z,22.33
2018-03-03T02:27:07.514Z,21.50
2018-03-03T02:29:35.581Z,20.50
2018-03-03T02:32:03.657Z,20.77
2018-03-03T02:34:32.473Z,21.27
2018-03-03T02:37:00.537Z,20.30
2018-03-03T02:39:28.615Z,20.17
2018-03-03T02:41:57.448Z,20.20
2018-03-03T02:44:25.504Z,19.93
2018-03-03T02:46:53.576Z,19.53
2018-03-03T02:49:22.464Z,16.57
2018-03-03T02:51:51.312Z,20.70
2018-03-03T02:54:19.371Z,20.43
2018-03-03T02:56:48.219Z,20.37
2018-03-03T02:59:16.294Z,22.53
2018-03-03T03:01:44.355Z,24.50
2018-03-03T03:04:13.187Z,19.60
2018-03-03T03:06:41.731Z,18.87
2018-03-03T03:09:09.768Z,20.33
2018-03-03T03:11:37.879Z,21.07
2018-03-03T03:14:06.819Z,21.57
2018-03-03T03:16:34.941Z,21.07
2018-03-03T03:19:03.150Z,21.87
2018-03-03T03:21:31.983Z,20.67
2018-03-03T03:24:00.059Z,23.57
2018-03-03T03:26:28.149Z,36.20
2018-03-03T03:28:56.197Z,52.50
2018-03-03T03:31:25.047Z,57.70
2018-03-03T03:33:53.211Z,53.90
2018-03-03T03:36:21.271Z,52.03
2018-03-03T03:38:49.344Z,58.73
2018-03-03T03:41:17.500Z,60.90
2018-03-03T03:43:45.568Z,52.87
2018-03-03T03:46:13.631Z,38.20
2018-03-03T03:48:41.709Z,36.23
2018-03-03T03:51:09.768Z,56.23
2018-03-03T03:53:38.630Z,59.57
2018-03-03T03:56:06.845Z,55.20
2018-03-03T03:58:34.929Z,47.47
2018-03-03T04:01:02.979Z,61.30
2018-03-03T04:03:31.060Z,57.67
2018-03-03T04:05:59.115Z,38.17
2018-03-03T04:08:27.224Z,36.63
2018-03-03T04:10:55.282Z,53.67
2018-03-03T04:13:23.357Z,54.73
2018-03-03T04:15:52.179Z,60.40
2018-03-03T04:18:21.028Z,50.37
2018-03-03T04:20:49.082Z,76.07
2018-03-03T04:23:17.209Z,72.47
2018-03-03T04:25:45.560Z,77.17
2018-03-03T04:28:13.736Z,72.60
2018-03-03T04:30:41.775Z,69.50
2018-03-03T04:33:10.642Z,70.70
2018-03-03T04:35:38.702Z,64.30
2018-03-03T04:38:06.804Z,67.30
2018-03-03T04:40:34.891Z,56.20
2018-03-03T04:43:02.968Z,43.17
2018-03-03T04:45:31.554Z,36.20
2018-03-03T04:47:59.636Z,30.20
2018-03-03T04:50:27.690Z,31.87
2018-03-03T04:52:56.036Z,26.90
2018-03-03T04:55:24.076Z,28.10
2018-03-03T04:57:52.144Z,31.43
2018-03-03T05:00:26.681Z,31.27
2018-03-03T05:06:23.419Z,39.37
2018-03-03T05:08:52.038Z,41.40
2018-03-03T05:11:20.091Z,38.37
2018-03-03T05:16:57.277Z,35.73
2018-03-03T05:19:46.894Z,35.40
2018-03-03T05:22:14.964Z,37.83
2018-03-03T05:24:49.341Z,37.07
2018-03-03T05:27:23.135Z,34.47
2018-03-03T05:29:57.408Z,35.23
2018-03-03T05:35:53.703Z,36.80
2018-03-03T05:38:28.176Z,35.50
2018-03-03T05:41:01.896Z,33.53
2018-03-03T05:43:35.913Z,34.90
2018-03-03T05:49:13.177Z,35.30
2018-03-03T05:51:43.872Z,34.43
2018-03-03T05:54:18.359Z,30.43
2018-03-03T05:56:46.431Z,31.23
2018-03-03T05:59:33.319Z,30.47
2018-03-03T06:02:07.078Z,29.30
2018-03-03T06:07:57.717Z,30.47
2018-03-03T06:10:40.681Z,35.37
2018-03-03T06:13:08.740Z,51.03
2018-03-03T06:15:36.797Z,39.43
2018-03-03T06:18:04.862Z,33.83
2018-03-03T06:20:32.997Z,35.80
2018-03-03T06:23:01.036Z,33.67
2018-03-03T06:25:29.098Z,37.90
2018-03-03T06:27:57.934Z,51.10
2018-03-03T06:30:26.000Z,41.23
2018-03-03T06:32:54.056Z,37.33
2018-03-03T06:35:22.128Z,40.03
2018-03-03T06:37:50.872Z,40.37
2018-03-03T06:40:18.951Z,38.23
2018-03-03T06:42:47.006Z,43.13
2018-03-03T06:45:15.065Z,41.83
2018-03-03T06:47:43.143Z,41.37
2018-03-03T06:50:11.238Z,43.97
2018-03-03T06:52:39.301Z,44.10
2018-03-03T06:55:07.367Z,47.93
2018-03-03T06:57:35.434Z,54.30
2018-03-03T07:00:03.517Z,60.70
2018-03-03T07:02:32.346Z,65.07
2018-03-03T07:05:00.620Z,55.87
2018-03-03T07:07:28.696Z,60.43
2018-03-03T07:09:56.754Z,69.10
2018-03-03T07:12:25.598Z,77.13
2018-03-03T07:14:57.113Z,85.30
2018-03-03T07:17:25.195Z,69.57
2018-03-03T07:19:53.257Z,66.00
2018-03-03T07:22:21.335Z,66.00
2018-03-03T07:24:49.385Z,76.97
2018-03-03T07:27:17.464Z,79.20
2018-03-03T07:29:45.541Z,75.13
2018-03-03T07:32:13.609Z,63.17
2018-03-03T07:34:42.442Z,65.80
2018-03-03T07:37:10.538Z,67.07
2018-03-03T07:39:38.585Z,58.03
2018-03-03T07:42:06.663Z,118.10
2018-03-03T07:44:35.491Z,67.93
2018-03-03T07:47:03.571Z,92.57
2018-03-03T07:49:31.625Z,79.57
2018-03-03T07:52:00.512Z,79.03
2018-03-03T07:54:28.578Z,74.20
2018-03-03T07:57:08.564Z,66.80
2018-03-03T07:59:36.613Z,63.33
2018-03-03T08:02:04.779Z,62.60
2018-03-03T08:04:32.845Z,62.63
2018-03-03T08:07:00.952Z,56.60
2018-03-03T08:09:29.019Z,55.37
2018-03-03T08:11:57.179Z,53.60
2018-03-03T08:14:26.007Z,51.10
2018-03-03T08:16:54.058Z,55.70
2018-03-03T08:19:22.887Z,50.37
2018-03-03T08:21:55.939Z,54.43
2018-03-03T08:24:24.003Z,54.37
2018-03-03T08:26:52.061Z,58.93
2018-03-03T08:29:20.132Z,54.57
2018-03-03T08:31:48.186Z,59.33
2018-03-03T08:34:16.286Z,63.33
2018-03-03T08:36:44.325Z,115.57
2018-03-03T08:39:12.404Z,97.40
2018-03-03T08:41:40.473Z,76.77
2018-03-03T08:44:08.550Z,69.73
2018-03-03T08:46:36.588Z,75.93
2018-03-03T08:49:04.652Z,80.23
2018-03-03T08:51:32.736Z,98.80
2018-03-03T08:54:00.793Z,101.80
2018-03-03T08:56:28.882Z,83.37
2018-03-03T08:58:56.952Z,75.17
2018-03-03T09:01:25.031Z,72.33
2018-03-03T09:03:53.102Z,78.20
2018-03-03T09:06:21.177Z,84.47
2018-03-03T09:08:50.418Z,66.37
2018-03-03T09:11:18.603Z,66.40
2018-03-03T09:13:46.744Z,69.23
2018-03-03T09:16:14.877Z,82.20
2018-03-03T09:18:42.988Z,72.87
2018-03-03T09:21:11.059Z,71.43
2018-03-03T09:23:39.129Z,76.23
2018-03-03T09:26:07.192Z,73.40
2018-03-03T09:28:35.325Z,71.20
2018-03-03T09:31:03.355Z,80.40
2018-03-03T09:33:31.408Z,79.33
2018-03-03T09:35:59.474Z,73.90
2018-03-03T09:38:27.528Z,72.87
2018-03-03T09:40:55.604Z,73.33
2018-03-03T09:43:23.667Z,73.33
2018-03-03T09:45:52.249Z,69.10
2018-03-03T09:48:21.067Z,79.27
2018-03-03T09:50:49.174Z,78.70
2018-03-03T09:53:17.239Z,72.73
2018-03-03T09:55:45.314Z,70.83
2018-03-03T09:58:13.355Z,73.13
2018-03-03T10:00:41.427Z,68.47
2018-03-03T10:03:09.486Z,56.43
2018-03-03T10:05:37.552Z,56.27
2018-03-03T10:08:05.606Z,52.13
2018-03-03T10:10:34.544Z,51.37
2018-03-03T10:13:02.622Z,49.10
2018-03-03T10:15:30.654Z,56.00
2018-03-03T10:17:58.704Z,56.73
2018-03-03T10:20:26.825Z,73.70
2018-03-03T10:22:55.043Z,74.47
2018-03-03T10:25:23.882Z,57.83
2018-03-03T10:27:51.940Z,58.07
2018-03-03T10:30:20.008Z,57.73
2018-03-03T10:32:48.828Z,56.53
2018-03-03T10:35:16.916Z,57.47
2018-03-03T10:37:45.007Z,55.23
2018-03-03T10:40:13.095Z,57.03
2018-03-03T10:42:41.157Z,54.87
2018-03-03T10:45:09.980Z,58.20
2018-03-03T10:47:38.047Z,54.47
2018-03-03T10:50:06.109Z,51.33
2018-03-03T10:52:34.944Z,52.53
2018-03-03T10:55:03.011Z,61.00
2018-03-03T10:57:31.349Z,70.30
2018-03-03T10:59:59.401Z,72.90
2018-03-03T11:02:27.477Z,63.53
2018-03-03T11:04:55.545Z,54.10
2018-03-03T11:07:24.376Z,51.07
2018-03-03T11:09:52.551Z,53.87
2018-03-03T11:12:20.643Z,49.80
2018-03-03T11:14:48.710Z,48.03
2018-03-03T11:17:16.788Z,47.33
2018-03-03T11:19:45.604Z,53.10
2018-03-03T11:22:14.464Z,50.00
2018-03-03T11:24:42.530Z,49.83
2018-03-03T11:27:10.601Z,49.57
2018-03-03T11:29:38.660Z,47.23
2018-03-03T11:32:06.746Z,51.10
2018-03-03T11:34:34.818Z,44.33
2018-03-03T11:37:02.895Z,39.53
2018-03-03T11:39:30.956Z,39.77
2018-03-03T11:41:59.797Z,31.37
2018-03-03T11:44:27.861Z,29.20
2018-03-03T11:46:55.941Z,21.83
2018-03-03T11:49:24.063Z,22.57
2018-03-03T11:51:52.132Z,12.60
2018-03-03T11:54:20.304Z,7.50
2018-03-03T11:56:48.384Z,7.87
2018-03-03T11:59:16.431Z,11.60
2018-03-03T12:01:44.488Z,9.83
2018-03-03T12:04:12.639Z,8.20
2018-03-03T12:06:40.710Z,12.30
2018-03-03T12:09:09.548Z,7.57
2018-03-03T12:11:37.608Z,6.80
2018-03-03T12:14:06.440Z,6.53
2018-03-03T12:16:34.505Z,5.27
2018-03-03T12:19:02.583Z,5.77
2018-03-03T12:21:30.635Z,6.73
2018-03-03T12:23:59.471Z,6.13
2018-03-03T12:26:27.546Z,6.07
2018-03-03T12:28:56.021Z,6.20
2018-03-03T12:31:24.188Z,6.30
2018-03-03T12:33:52.311Z,6.30
2018-03-03T12:36:20.369Z,5.93
2018-03-03T12:38:48.692Z,5.50
2018-03-03T12:41:16.917Z,7.20
2018-03-03T12:43:44.992Z,7.23
2018-03-03T12:46:13.072Z,6.33
2018-03-03T12:48:41.274Z,7.20
2018-03-03T12:51:09.375Z,7.47
2018-03-03T12:53:37.457Z,7.77
2018-03-03T12:56:05.571Z,6.93
2018-03-03T12:58:34.454Z,7.23
2018-03-03T13:01:02.526Z,6.03
2018-03-03T13:03:30.596Z,7.60
2018-03-03T13:05:58.689Z,8.00
2018-03-03T13:08:26.831Z,7.60
2018-03-03T13:10:55.438Z,15.17
2018-03-03T13:13:23.551Z,10.37
2018-03-03T13:15:52.290Z,9.47
2018-03-03T13:18:20.376Z,9.63
2018-03-03T13:20:50.148Z,8.10
2018-03-03T13:23:18.218Z,7.80
2018-03-03T13:25:46.295Z,8.53
2018-03-03T13:28:14.392Z,8.40
2018-03-03T13:30:42.442Z,9.07
2018-03-03T13:33:10.753Z,8.50
2018-03-03T13:35:38.848Z,10.07
2018-03-03T13:38:06.901Z,9.53
2018-03-03T13:40:34.964Z,8.07
2018-03-03T13:43:03.033Z,7.17
2018-03-03T13:45:31.884Z,7.87
2018-03-03T13:48:01.085Z,7.57
2018-03-03T13:50:29.168Z,7.27
2018-03-03T13:52:57.235Z,8.20
2018-03-03T13:55:25.581Z,6.67
2018-03-03T13:57:53.680Z,7.13
2018-03-03T14:00:22.502Z,8.10
2018-03-03T14:02:51.276Z,8.23
2018-03-03T14:05:19.323Z,6.83
2018-03-03T14:07:47.385Z,7.40
2018-03-03T14:10:15.429Z,8.30
2018-03-03T14:12:43.485Z,8.27
2018-03-03T14:15:11.527Z,8.53
2018-03-03T14:17:39.567Z,7.53
2018-03-03T14:20:07.621Z,7.93
2018-03-03T14:22:35.684Z,7.77
2018-03-03T14:25:03.731Z,7.20
2018-03-03T14:27:32.547Z,7.47
2018-03-03T14:30:00.630Z,8.03
2018-03-03T14:32:29.432Z,7.93
2018-03-03T14:34:57.480Z,7.97
2018-03-03T14:37:25.606Z,8.50
2018-03-03T14:39:53.721Z,7.67
2018-03-03T14:42:21.777Z,7.93
2018-03-03T14:44:49.933Z,9.43
2018-03-03T14:47:18.743Z,8.53
2018-03-03T14:49:47.576Z,9.10
2018-03-03T14:52:15.639Z,9.17
2018-03-03T14:54:43.882Z,8.47
2018-03-03T14:57:11.948Z,9.60
2018-03-03T14:59:39.991Z,9.70
2018-03-03T15:02:08.040Z,9.50
2018-03-03T15:04:36.100Z,9.20
2018-03-03T15:07:04.140Z,9.57
2018-03-03T15:09:32.224Z,11.73
2018-03-03T15:12:01.130Z,16.03
2018-03-03T15:14:29.196Z,12.93
2018-03-03T15:16:57.256Z,10.27
2018-03-03T15:19:25.351Z,9.87
2018-03-03T15:21:53.430Z,10.10
2018-03-03T15:24:21.490Z,11.10
2018-03-03T15:26:50.568Z,9.97
2018-03-03T15:29:18.666Z,9.70
2018-03-03T15:31:46.812Z,9.03
2018-03-03T15:34:14.842Z,9.03
2018-03-03T15:36:42.896Z,8.50
2018-03-03T15:39:11.022Z,8.20
2018-03-03T15:41:39.094Z,8.63
2018-03-03T15:44:07.187Z,9.57
2018-03-03T15:46:35.378Z,10.20
2018-03-03T15:49:03.509Z,11.27
2018-03-03T15:51:31.572Z,11.03
2018-03-03T15:54:00.501Z,12.80
2018-03-03T15:56:28.662Z,13.00
2018-03-03T15:58:56.710Z,13.10
2018-03-03T16:01:24.762Z,10.97
2018-03-03T16:03:52.866Z,11.37
2018-03-03T16:06:20.910Z,12.43
2018-03-03T16:08:49.732Z,12.00
2018-03-03T16:11:17.778Z,11.47
2018-03-03T16:13:46.596Z,13.13
2018-03-03T16:16:14.680Z,12.77
2018-03-03T16:18:42.707Z,13.27
2018-03-03T16:21:10.777Z,14.07
2018-03-03T16:23:38.841Z,13.80
2018-03-03T16:26:06.912Z,12.30
2018-03-03T16:28:35.729Z,12.40
2018-03-03T16:31:04.048Z,12.57
2018-03-03T16:33:32.209Z,13.00
2018-03-03T16:36:01.033Z,13.47
2018-03-03T16:38:29.079Z,13.17
2018-03-03T16:40:58.213Z,13.13
2018-03-03T16:43:26.262Z,8.53
2018-03-03T16:45:54.318Z,10.07
2018-03-03T16:48:22.379Z,12.97
2018-03-03T16:50:50.422Z,12.40
2018-03-03T16:53:18.472Z,12.07
2018-03-03T16:55:46.617Z,13.23
2018-03-03T16:58:14.627Z,12.60
2018-03-03T17:00:42.692Z,11.43
2018-03-03T17:03:11.157Z,12.10
2018-03-03T17:05:39.965Z,11.70
2018-03-03T17:08:08.096Z,20.00
2018-03-03T17:10:36.190Z,17.07
2018-03-03T17:13:05.036Z,30.13
2018-03-03T17:15:33.208Z,21.23
2018-03-03T17:18:01.378Z,18.03
2018-03-03T17:20:29.442Z,15.00
2018-03-03T17:22:58.306Z,17.03
2018-03-03T17:25:26.348Z,19.33
2018-03-03T17:27:55.132Z,16.70
2018-03-03T17:30:24.029Z,19.40
2018-03-03T17:32:52.850Z,19.43
2018-03-03T17:35:20.948Z,16.97
2018-03-03T17:37:49.017Z,16.33
2018-03-03T17:40:17.185Z,15.30
2018-03-03T17:42:45.208Z,15.87
2018-03-03T17:45:13.271Z,17.40
2018-03-03T17:47:41.380Z,18.30
2018-03-03T17:50:10.245Z,16.73
2018-03-03T17:52:39.129Z,19.20
2018-03-03T17:55:07.191Z,19.00
2018-03-03T17:57:35.248Z,19.37
2018-03-03T18:00:03.308Z,19.67
2018-03-03T18:02:32.290Z,23.43
2018-03-03T18:05:00.348Z,23.73
2018-03-03T18:07:28.427Z,22.63
2018-03-03T18:09:56.482Z,23.60
2018-03-03T18:12:24.547Z,23.43
2018-03-03T18:14:53.408Z,23.87
2018-03-03T18:17:21.435Z,22.27
2018-03-03T18:19:49.618Z,24.23
2018-03-03T18:22:17.634Z,22.47
2018-03-03T18:24:45.708Z,24.70
2018-03-03T18:27:13.798Z,25.47
2018-03-03T18:29:41.896Z,25.27
2018-03-03T18:32:09.988Z,26.20
2018-03-03T18:34:38.038Z,28.23
2018-03-03T18:37:06.203Z,28.07
2018-03-03T18:39:34.343Z,29.63
2018-03-03T18:42:02.419Z,28.03
2018-03-03T18:44:30.512Z,31.10
2018-03-03T18:46:58.531Z,29.97
2018-03-03T18:49:27.352Z,30.13
2018-03-03T18:51:55.400Z,30.93
2018-03-03T18:54:23.481Z,30.97
2018-03-03T18:56:52.311Z,32.93
2018-03-03T18:59:20.366Z,35.30
2018-03-03T19:01:49.235Z,35.30
2018-03-03T19:04:18.399Z,36.77
2018-03-03T19:06:46.446Z,35.50
2018-03-03T19:09:14.486Z,35.10
2018-03-03T19:11:42.548Z,33.00
2018-03-03T19:14:10.629Z,32.57
2018-03-03T19:16:39.460Z,33.37
2018-03-03T19:19:07.523Z,30.43
2018-03-03T19:21:35.574Z,31.00
2018-03-03T19:24:04.408Z,32.17
2018-03-03T19:26:32.505Z,32.80
2018-03-03T19:29:01.383Z,34.60
2018-03-03T19:31:29.431Z,36.33
2018-03-03T19:33:57.471Z,37.90
2018-03-03T19:36:25.560Z,37.43
2018-03-03T19:38:53.727Z,38.13
2018-03-03T19:41:22.105Z,57.07
2018-03-03T19:43:51.172Z,40.13
2018-03-03T19:46:19.247Z,38.40
2018-03-03T19:48:47.445Z,46.07
2018-03-03T19:51:15.570Z,37.50
2018-03-03T19:53:44.428Z,37.40
2018-03-03T19:56:13.283Z,37.50
2018-03-03T19:58:41.357Z,53.33
2018-03-03T20:01:10.224Z,44.03
2018-03-03T20:03:38.369Z,40.23
2018-03-03T20:06:06.437Z,31.13
2018-03-03T20:08:34.553Z,29.57
2018-03-03T20:11:02.890Z,27.87
2018-03-03T20:13:30.927Z,29.27
2018-03-03T20:15:59.025Z,25.70
2018-03-03T20:18:27.055Z,29.93
2018-03-03T20:20:55.134Z,30.37
2018-03-03T20:23:23.179Z,31.87
2018-03-03T20:25:51.225Z,30.90
2018-03-03T20:28:19.362Z,31.23
2018-03-03T20:30:47.435Z,32.97
2018-03-03T20:33:15.586Z,31.93
2018-03-03T20:35:43.750Z,29.90
2018-03-03T20:38:11.874Z,32.07
2018-03-03T20:40:39.919Z,31.50
2018-03-03T20:43:08.101Z,30.90
2018-03-03T20:45:36.959Z,47.50
2018-03-03T20:48:05.740Z,49.40
2018-03-03T20:50:33.847Z,41.63
2018-03-03T20:53:01.894Z,33.00
2018-03-03T20:55:30.018Z,32.50
2018-03-03T20:57:58.064Z,29.07
2018-03-03T21:00:26.148Z,28.33
2018-03-03T21:02:54.494Z,31.80
2018-03-03T21:05:22.624Z,27.27
2018-03-03T21:07:50.694Z,25.70
2018-03-03T21:10:18.763Z,26.37
2018-03-03T21:12:47.159Z,25.40
2018-03-03T21:15:15.970Z,29.93
2018-03-03T21:17:44.036Z,25.23
2018-03-03T21:20:12.104Z,24.33
2018-03-03T21:22:40.957Z,23.97
2018-03-03T21:25:09.073Z,22.97
2018-03-03T21:27:37.149Z,23.83
2018-03-03T21:30:05.265Z,24.67
2018-03-03T21:32:34.141Z,23.70
2018-03-03T21:35:02.452Z,32.57
2018-03-03T21:37:34.275Z,33.30
2018-03-03T21:40:02.336Z,24.90
2018-03-03T21:42:31.191Z,26.63
2018-03-03T21:44:59.259Z,21.13
2018-03-03T21:47:27.344Z,23.30
2018-03-03T21:49:55.580Z,25.50
2018-03-03T21:52:24.401Z,23.23
2018-03-03T21:54:52.460Z,38.60
2018-03-03T21:57:20.528Z,57.87
2018-03-03T21:59:49.363Z,41.97
2018-03-03T22:02:17.644Z,21.63
2018-03-03T22:04:45.771Z,19.60
2018-03-03T22:07:13.814Z,17.57
2018-03-03T22:09:41.880Z,17.37
2018-03-03T22:12:10.703Z,17.97
2018-03-03T22:14:38.755Z,17.87
2018-03-03T22:17:07.584Z,18.17
2018-03-03T22:19:35.644Z,17.83
2018-03-03T22:22:04.778Z,15.53
2018-03-03T22:24:32.824Z,15.67
2018-03-03T22:27:01.656Z,15.30
2018-03-03T22:29:29.716Z,14.50
2018-03-03T22:31:58.528Z,17.43
2018-03-03T22:34:26.619Z,18.10
2018-03-03T22:36:54.667Z,17.03
2018-03-03T22:39:22.722Z,17.47
2018-03-03T22:41:50.794Z,14.97
2018-03-03T22:44:18.848Z,15.63
2018-03-03T22:46:46.914Z,15.47
2018-03-03T22:49:15.810Z,15.47
2018-03-03T22:51:45.567Z,15.33
2018-03-03T22:54:13.623Z,14.87
2018-03-03T22:56:42.450Z,15.63
2018-03-03T22:59:10.517Z,16.33
2018-03-03T23:01:39.344Z,15.63
2018-03-03T23:04:07.615Z,15.37
2018-03-03T23:06:35.708Z,14.53
2018-03-03T23:09:03.958Z,13.20
2018-03-03T23:11:32.797Z,13.77
2018-03-03T23:14:01.029Z,13.20
2018-03-03T23:16:29.100Z,13.70
2018-03-03T23:18:57.169Z,75.20
2018-03-03T23:21:25.223Z,26.80
2018-03-03T23:23:53.385Z,19.80
2018-03-03T23:26:21.613Z,14.60
2018-03-03T23:28:49.678Z,14.10
2018-03-03T23:31:17.743Z,15.43
2018-03-03T23:33:46.568Z,16.00
2018-03-03T23:36:14.606Z,14.57
2018-03-03T23:38:42.658Z,13.97
2018-03-03T23:41:10.721Z,40.77
2018-03-03T23:43:38.905Z,41.53
2018-03-03T23:46:06.967Z,29.40
2018-03-03T23:48:35.808Z,16.37
2018-03-03T23:51:03.864Z,18.13
2018-03-03T23:53:31.915Z,30.83
2018-03-03T23:55:59.971Z,16.20
2018-03-03T23:58:28.025Z,35.23
